createdAt,value
2022-10-11T00:04:29.013Z,2.65
2022-10-11T00:09:32.161Z,2.50
2022-10-11T00:14:36.236Z,2.53
2022-10-11T00:19:38.951Z,3.00
2022-10-11T00:24:43.201Z,2.70
2022-10-11T00:29:47.914Z,2.65
2022-10-11T00:34:50.598Z,2.63
2022-10-11T00:39:54.064Z,3.03
2022-10-11T00:45:30.219Z,4.50
2022-10-11T00:50:36.672Z,4.28
2022-10-11T00:55:49.010Z,2.37
2022-10-11T01:00:52.769Z,2.85
2022-10-11T01:05:57.114Z,2.67
2022-10-11T01:11:00.216Z,3.00
2022-10-11T01:16:13.712Z,3.50
2022-10-11T01:21:30.889Z,3.30
2022-10-11T01:27:13.487Z,2.42
2022-10-11T01:32:20.400Z,2.50
2022-10-11T01:37:27.993Z,3.20
2022-10-11T01:42:31.839Z,4.10
2022-10-11T01:47:36.413Z,3.45
2022-10-11T01:52:45.246Z,2.83
2022-10-11T01:58:03.251Z,3.08
2022-10-11T02:03:22.175Z,3.03
2022-10-11T02:08:38.217Z,3.33
2022-10-11T02:13:45.215Z,2.78
2022-10-11T02:18:53.481Z,2.53
2022-10-11T02:24:02.132Z,2.30
2022-10-11T02:29:09.901Z,3.40
2022-10-11T02:34:19.251Z,3.38
2022-10-11T02:39:27.044Z,2.70
2022-10-11T02:44:35.271Z,3.78
2022-10-11T02:49:39.370Z,3.13
2022-10-11T02:54:42.095Z,3.85
2022-10-11T02:59:44.909Z,4.00
2022-10-11T03:04:49.100Z,4.78
2022-10-11T03:09:51.812Z,3.08
2022-10-11T03:14:54.639Z,2.65
2022-10-11T03:19:58.718Z,2.90
2022-10-11T03:25:04.317Z,2.95
2022-10-11T03:30:09.947Z,3.17
2022-10-11T03:35:14.443Z,3.10
2022-10-11T03:40:17.150Z,2.53
2022-10-11T03:45:20.109Z,3.70
2022-10-11T03:50:24.713Z,2.75
2022-10-11T03:55:28.042Z,2.88
2022-10-11T04:00:31.049Z,2.40
2022-10-11T04:05:35.135Z,2.92
2022-10-11T04:10:37.901Z,2.70
2022-10-11T04:15:41.278Z,2.92
2022-10-11T04:20:45.358Z,2.90
2022-10-11T04:25:48.393Z,2.47
2022-10-11T04:30:52.159Z,2.67
2022-10-11T04:35:57.245Z,2.80
2022-10-11T04:41:07.391Z,2.80
2022-10-11T04:46:11.538Z,2.65
2022-10-11T04:51:15.985Z,2.65
2022-10-11T04:56:19.370Z,3.28
2022-10-11T05:01:22.527Z,3.20
2022-10-11T05:06:26.616Z,3.58
2022-10-11T05:11:29.905Z,2.95
2022-10-11T05:16:32.839Z,2.92
2022-10-11T05:21:36.969Z,2.92
2022-10-11T05:26:39.824Z,2.92
2022-10-11T05:31:43.223Z,3.00
2022-10-11T05:36:47.726Z,3.30
2022-10-11T05:41:51.776Z,3.33
2022-10-11T05:46:54.821Z,3.28
2022-10-11T05:51:59.008Z,3.72
2022-10-11T05:57:02.130Z,3.60
2022-10-11T06:02:05.058Z,3.85
2022-10-11T06:07:09.521Z,3.53
2022-10-11T06:12:12.443Z,5.13
2022-10-11T06:17:16.410Z,5.00
2022-10-11T06:22:20.666Z,5.88
2022-10-11T06:27:23.501Z,6.10
2022-10-11T06:32:26.219Z,7.68
2022-10-11T06:37:31.158Z,6.45
2022-10-11T06:42:33.846Z,4.10
2022-10-11T06:47:36.672Z,5.15
2022-10-11T06:52:40.842Z,9.48
2022-10-11T06:57:43.677Z,6.30
2022-10-11T07:02:46.404Z,6.50
2022-10-11T07:07:50.432Z,5.28
2022-10-11T07:12:53.391Z,6.10
2022-10-11T07:17:56.198Z,4.47
2022-10-11T07:23:00.305Z,5.75
2022-10-11T07:28:03.959Z,5.28
2022-10-11T07:33:06.834Z,7.25
2022-10-11T07:38:12.410Z,8.00
2022-10-11T07:43:15.457Z,7.93
2022-10-11T07:48:18.213Z,7.20
2022-10-11T07:53:22.377Z,7.00
2022-10-11T07:58:25.142Z,8.15
2022-10-11T08:03:29.275Z,8.55
2022-10-11T08:08:33.799Z,7.07
2022-10-11T08:13:36.809Z,7.63
2022-10-11T08:18:39.564Z,7.72
2022-10-11T08:23:45.934Z,7.97
2022-10-11T08:28:48.940Z,7.20
2022-10-11T08:33:51.744Z,6.88
2022-10-11T08:38:55.781Z,6.63
2022-10-11T08:44:34.168Z,5.75
2022-10-11T08:49:49.662Z,5.13
2022-10-11T08:54:57.457Z,5.95
2022-10-11T09:00:04.431Z,4.75
2022-10-11T09:05:11.639Z,5.22
2022-10-11T09:15:39.429Z,4.40
2022-10-11T09:20:51.862Z,5.20
2022-10-11T09:26:02.646Z,3.78
2022-10-11T09:31:10.149Z,4.28
2022-10-11T09:36:23.345Z,3.83
2022-10-11T09:41:34.259Z,4.43
2022-10-11T09:46:41.051Z,2.92
2022-10-11T09:51:49.181Z,3.50
2022-10-11T09:56:53.234Z,3.08
2022-10-11T10:02:30.339Z,3.17
2022-10-11T10:07:35.264Z,3.45
2022-10-11T10:12:39.358Z,4.28
2022-10-11T10:17:49.631Z,3.28
2022-10-11T10:22:53.390Z,3.35
2022-10-11T10:28:02.904Z,3.65
2022-10-11T10:33:08.606Z,2.38
2022-10-11T10:38:17.452Z,2.15
2022-10-11T10:43:23.751Z,2.38
2022-10-11T10:49:02.052Z,3.05
2022-10-11T10:54:05.370Z,2.95
2022-10-11T10:59:39.989Z,2.28
2022-10-11T11:04:50.660Z,3.30
2022-10-11T11:10:02.378Z,2.45
2022-10-11T11:15:14.301Z,3.08
2022-10-11T11:20:42.509Z,2.63
2022-10-11T11:25:53.286Z,1.85
2022-10-11T11:31:09.357Z,2.13
2022-10-11T11:36:17.096Z,2.58
2022-10-11T11:41:24.922Z,2.25
2022-10-11T11:46:32.876Z,2.22
2022-10-11T11:51:42.436Z,2.65
2022-10-11T11:56:52.963Z,2.45
2022-10-11T12:02:08.114Z,2.88
2022-10-11T12:07:16.684Z,2.50
2022-10-11T12:12:31.254Z,2.78
2022-10-11T12:18:17.392Z,1.75
2022-10-11T12:23:48.447Z,2.08
2022-10-11T12:29:42.369Z,2.10
2022-10-11T12:34:46.701Z,2.38
2022-10-11T12:39:55.074Z,2.00
2022-10-11T12:45:34.351Z,1.90
2022-10-11T12:50:51.391Z,1.80
2022-10-11T12:56:02.187Z,1.95
2022-10-11T13:01:21.587Z,1.92
2022-10-11T13:06:29.332Z,2.78
2022-10-11T13:11:34.720Z,1.85
2022-10-11T13:16:58.442Z,1.98
2022-10-11T13:22:05.134Z,2.00
2022-10-11T13:27:08.553Z,2.80
2022-10-11T13:32:14.644Z,1.50
2022-10-11T13:37:21.540Z,2.15
2022-10-11T13:42:28.903Z,3.30
2022-10-11T13:47:36.977Z,2.05
2022-10-11T13:52:54.701Z,2.08
2022-10-11T13:57:59.675Z,2.30
2022-10-11T14:03:07.801Z,2.92
2022-10-11T14:08:24.607Z,2.10
2022-10-11T14:13:32.962Z,1.25
2022-10-11T14:18:48.602Z,1.95
2022-10-11T14:23:59.542Z,1.67
2022-10-11T14:29:09.230Z,1.73
2022-10-11T14:34:18.863Z,2.20
2022-10-11T14:39:25.137Z,2.55
2022-10-11T14:44:28.353Z,2.23
2022-10-11T14:49:31.553Z,1.75
2022-10-11T14:54:35.844Z,1.90
2022-10-11T14:59:39.603Z,1.88
2022-10-11T15:04:42.281Z,2.30
2022-10-11T15:09:46.435Z,2.53
2022-10-11T15:14:49.183Z,2.00
2022-10-11T15:19:51.866Z,2.13
2022-10-11T15:24:56.069Z,2.55
2022-10-11T15:29:59.631Z,1.83
2022-10-11T15:35:02.361Z,1.88
2022-10-11T15:40:17.006Z,2.40
2022-10-11T15:45:21.002Z,2.22
2022-10-11T15:50:34.760Z,2.25
2022-10-11T15:55:46.519Z,1.90
2022-10-11T16:00:53.982Z,7.55
2022-10-11T16:06:02.343Z,5.15
2022-10-11T16:11:10.715Z,1.83
2022-10-11T16:16:13.594Z,2.50
2022-10-11T16:21:16.347Z,2.88
2022-10-11T16:26:20.483Z,4.00
2022-10-11T16:31:23.435Z,2.30
2022-10-11T16:36:46.200Z,2.80
2022-10-11T16:41:50.335Z,2.72
2022-10-11T16:46:53.170Z,2.22
2022-10-11T16:51:58.955Z,3.67
2022-10-11T16:57:03.007Z,3.42
2022-10-11T17:02:07.709Z,2.83
2022-10-11T17:07:12.862Z,3.03
2022-10-11T17:12:19.039Z,3.67
2022-10-11T17:17:22.176Z,4.10
2022-10-11T17:22:25.894Z,3.15
2022-10-11T17:27:29.995Z,3.08
2022-10-11T17:32:32.927Z,4.35
2022-10-11T17:37:36.256Z,3.90
2022-10-11T17:42:41.801Z,4.30
2022-10-11T17:47:44.482Z,5.00
2022-10-11T17:52:47.229Z,8.23
2022-10-11T17:57:51.332Z,12.18
2022-10-11T18:02:57.156Z,11.50
2022-10-11T18:08:00.802Z,9.05
2022-10-11T18:13:06.878Z,7.00
2022-10-11T18:18:11.679Z,6.03
2022-10-11T18:23:15.944Z,6.63
2022-10-11T18:28:20.808Z,7.70
2022-10-11T18:33:23.805Z,7.80
2022-10-11T18:38:26.783Z,6.85
2022-10-11T18:43:33.005Z,6.85
2022-10-11T18:48:36.626Z,6.78
2022-10-11T18:53:39.475Z,7.47
2022-10-11T18:58:44.706Z,7.00
2022-10-11T19:03:50.205Z,8.30
2022-10-11T19:08:54.801Z,6.80
2022-10-11T19:14:00.952Z,4.47
2022-10-11T19:19:04.952Z,3.95
2022-10-11T19:24:08.590Z,4.13
2022-10-11T19:29:14.941Z,6.28
2022-10-11T19:34:19.280Z,9.10
2022-10-11T19:39:23.605Z,9.88
2022-10-11T19:44:29.027Z,10.98
2022-10-11T19:49:32.004Z,8.57
2022-10-11T19:54:34.752Z,8.80
2022-10-11T19:59:38.891Z,12.23
2022-10-11T20:04:56.979Z,6.22
2022-10-11T20:09:59.703Z,5.38
2022-10-11T20:15:03.967Z,3.67
2022-10-11T20:20:07.672Z,6.05
2022-10-11T20:25:10.669Z,6.50
2022-10-11T20:30:15.059Z,7.40
2022-10-11T20:35:18.874Z,6.10
2022-10-11T20:40:21.558Z,5.47
2022-10-11T20:45:26.605Z,9.18
2022-10-11T20:50:29.486Z,8.52
2022-10-11T20:55:32.883Z,9.50
2022-10-11T21:00:39.640Z,8.73
2022-10-11T21:05:43.021Z,8.50
2022-10-11T21:10:52.593Z,7.55
2022-10-11T21:15:56.744Z,6.68
2022-10-11T21:21:05.143Z,6.32
2022-10-11T21:26:11.297Z,7.35
2022-10-11T21:31:16.972Z,8.52
2022-10-11T21:36:22.078Z,8.60
2022-10-11T21:41:26.402Z,7.63
2022-10-11T21:47:01.195Z,8.38
2022-10-11T21:51:55.013Z,7.97
2022-10-11T21:56:58.369Z,7.38
2022-10-11T22:02:02.540Z,7.88
2022-10-11T22:07:06.223Z,7.68
2022-10-11T22:12:09.012Z,8.60
2022-10-11T22:17:13.050Z,7.03
2022-10-11T22:22:15.728Z,7.78
2022-10-11T22:27:20.540Z,8.80
2022-10-11T22:32:24.907Z,7.38
2022-10-11T22:37:28.151Z,6.35
2022-10-11T22:42:31.270Z,7.53
2022-10-11T22:47:36.222Z,6.82
2022-10-11T22:52:40.091Z,7.57
2022-10-11T22:57:42.793Z,7.15
2022-10-11T23:02:46.879Z,7.40
2022-10-11T23:07:50.167Z,7.43
2022-10-11T23:12:52.880Z,6.88
2022-10-11T23:17:56.934Z,7.45
2022-10-11T23:22:59.657Z,7.32
2022-10-11T23:28:02.829Z,10.43
2022-10-11T23:33:06.903Z,8.25
2022-10-11T23:38:09.615Z,7.55
2022-10-11T23:43:12.298Z,7.53
2022-10-11T23:48:16.366Z,8.45
2022-10-11T23:53:20.333Z,7.32
2022-10-11T23:58:23.039Z,7.15
